sensor_id;sensor_type;location;lat;lon;timestamp;pressure;altitude;pressure_sealevel;temperature;humidity
49367;BME280;35245;52.026;8.540;2023-02-11T00:00:43;50994.84;;;-145.42;91.81
49367;BME280;35245;52.026;8.540;2023-02-11T00:03:10;51014.66;;;-145.42;91.10
49367;BME280;35245;52.026;8.540;2023-02-11T00:05:38;50998.81;;;-145.42;90.47
49367;BME280;35245;52.026;8.540;2023-02-11T00:08:05;51006.75;;;-145.42;90.18
49367;BME280;35245;52.026;8.540;2023-02-11T00:10:33;50996.84;;;-145.42;90.18
49367;BME280;35245;52.026;8.540;2023-02-11T00:13:00;50984.94;;;-145.42;92.35
49367;BME280;35245;52.026;8.540;2023-02-11T00:15:27;51002.78;;;-145.42;91.88
49367;BME280;35245;52.026;8.540;2023-02-11T00:17:55;50975.03;;;-145.42;93.18
49367;BME280;35245;52.026;8.540;2023-02-11T00:20:22;50975.03;;;-145.42;94.37
49367;BME280;35245;52.026;8.540;2023-02-11T00:22:51;51002.78;;;-145.42;94.60
49367;BME280;35245;52.026;8.540;2023-02-11T00:25:18;50982.97;;;-145.42;96.30
49367;BME280;35245;52.026;8.540;2023-02-11T00:27:45;50994.84;;;-145.42;93.79
49367;BME280;35245;52.026;8.540;2023-02-11T00:30:13;50979.00;;;-145.42;93.43
49367;BME280;35245;52.026;8.540;2023-02-11T00:32:41;50998.81;;;-145.42;94.41
49367;BME280;35245;52.026;8.540;2023-02-11T00:35:08;51004.75;;;-145.42;92.74
49367;BME280;35245;52.026;8.540;2023-02-11T00:37:35;50979.00;;;-145.42;93.83
49367;BME280;35245;52.026;8.540;2023-02-11T00:40:05;50984.94;;;-145.42;94.23
49367;BME280;35245;52.026;8.540;2023-02-11T00:42:33;50975.03;;;-145.42;94.00
49367;BME280;35245;52.026;8.540;2023-02-11T00:45:00;51008.72;;;-145.42;96.57
49367;BME280;35245;52.026;8.540;2023-02-11T00:47:28;50992.88;;;-145.42;97.69
49367;BME280;35245;52.026;8.540;2023-02-11T00:49:55;50990.88;;;-145.42;98.36
49367;BME280;35245;52.026;8.540;2023-02-11T00:52:22;50986.91;;;-145.42;96.28
49367;BME280;35245;52.026;8.540;2023-02-11T00:54:49;50998.81;;;-145.42;98.37
49367;BME280;35245;52.026;8.540;2023-02-11T00:57:18;50975.03;;;-145.42;100.00
49367;BME280;35245;52.026;8.540;2023-02-11T00:59:45;50979.00;;;-145.42;99.31
49367;BME280;35245;52.026;8.540;2023-02-11T01:02:13;51012.69;;;-145.42;97.34
49367;BME280;35245;52.026;8.540;2023-02-11T01:04:40;50996.84;;;-145.42;100.00
49367;BME280;35245;52.026;8.540;2023-02-11T01:07:08;50986.91;;;-145.42;99.31
49367;BME280;35245;52.026;8.540;2023-02-11T01:09:37;51012.69;;;-145.42;98.79
49367;BME280;35245;52.026;8.540;2023-02-11T01:12:07;51004.75;;;-145.42;100.00
49367;BME280;35245;52.026;8.540;2023-02-11T01:14:36;50992.88;;;-145.42;100.00
49367;BME280;35245;52.026;8.540;2023-02-11T01:17:04;50982.97;;;-145.42;100.00
49367;BME280;35245;52.026;8.540;2023-02-11T01:19:31;50998.81;;;-145.42;100.00
49367;BME280;35245;52.026;8.540;2023-02-11T01:21:59;50982.97;;;-145.42;99.42
49367;BME280;35245;52.026;8.540;2023-02-11T01:24:26;50986.91;;;-145.42;99.39
49367;BME280;35245;52.026;8.540;2023-02-11T01:26:53;50977.00;;;-145.42;100.00
49367;BME280;35245;52.026;8.540;2023-02-11T01:29:21;50996.84;;;-145.42;100.00
49367;BME280;35245;52.026;8.540;2023-02-11T01:31:50;50996.84;;;-145.42;100.00
49367;BME280;35245;52.026;8.540;2023-02-11T01:34:17;51016.66;;;-145.42;100.00
49367;BME280;35245;52.026;8.540;2023-02-11T01:36:44;51016.66;;;-145.42;100.00
49367;BME280;35245;52.026;8.540;2023-02-11T01:39:11;51000.78;;;-145.42;99.63
49367;BME280;35245;52.026;8.540;2023-02-11T01:41:39;50988.91;;;-145.42;100.00
49367;BME280;35245;52.026;8.540;2023-02-11T01:44:25;50992.88;;;-145.42;100.00
49367;BME280;35245;52.026;8.540;2023-02-11T01:46:55;50979.00;;;-145.42;100.00
49367;BME280;35245;52.026;8.540;2023-02-11T01:49:26;51004.75;;;-145.42;100.00
49367;BME280;35245;52.026;8.540;2023-02-11T01:51:58;51002.78;;;-145.42;100.00
49367;BME280;35245;52.026;8.540;2023-02-11T01:54:31;50994.84;;;-145.42;100.00
49367;BME280;35245;52.026;8.540;2023-02-11T01:57:34;50988.91;;;-145.42;100.00
49367;BME280;35245;52.026;8.540;2023-02-11T02:00:12;50982.97;;;-145.42;100.00
49367;BME280;35245;52.026;8.540;2023-02-11T02:02:47;50986.91;;;-145.42;100.00
49367;BME280;35245;52.026;8.540;2023-02-11T02:05:25;50988.91;;;-145.42;100.00
49367;BME280;35245;52.026;8.540;2023-02-11T02:08:02;50992.88;;;-145.42;100.00
49367;BME280;35245;52.026;8.540;2023-02-11T02:10:34;50994.84;;;-145.42;100.00
49367;BME280;35245;52.026;8.540;2023-02-11T02:13:02;51002.78;;;-145.42;100.00
49367;BME280;35245;52.026;8.540;2023-02-11T02:15:32;50992.88;;;-145.42;100.00
49367;BME280;35245;52.026;8.540;2023-02-11T02:18:08;50994.84;;;-145.42;100.00
49367;BME280;35245;52.026;8.540;2023-02-11T02:21:18;51006.75;;;-145.42;100.00
49367;BME280;35245;52.026;8.540;2023-02-11T02:30:38;51020.63;;;-145.42;100.00
49367;BME280;35245;52.026;8.540;2023-02-11T02:33:26;50996.84;;;-145.42;100.00
49367;BME280;35245;52.026;8.540;2023-02-11T02:36:07;51008.72;;;-145.42;100.00
49367;BME280;35245;52.026;8.540;2023-02-11T02:38:39;50980.97;;;-145.42;100.00
49367;BME280;35245;52.026;8.540;2023-02-11T02:41:12;50990.88;;;-145.42;100.00
49367;BME280;35245;52.026;8.540;2023-02-11T02:43:42;50975.03;;;-145.42;100.00
49367;BME280;35245;52.026;8.540;2023-02-11T02:46:13;50996.84;;;-145.42;100.00
49367;BME280;35245;52.026;8.540;2023-02-11T02:48:43;50961.16;;;-145.42;100.00
49367;BME280;35245;52.026;8.540;2023-02-11T02:51:51;50977.00;;;-145.42;100.00
49367;BME280;35245;52.026;8.540;2023-02-11T02:55:16;51002.78;;;-145.42;100.00
49367;BME280;35245;52.026;8.540;2023-02-11T02:58:32;50979.00;;;-145.42;100.00
49367;BME280;35245;52.026;8.540;2023-02-11T03:01:08;51006.75;;;-145.42;100.00
49367;BME280;35245;52.026;8.540;2023-02-11T03:03:48;51012.69;;;-145.42;100.00
49367;BME280;35245;52.026;8.540;2023-02-11T03:06:29;51024.59;;;-145.42;100.00
49367;BME280;35245;52.026;8.540;2023-02-11T03:09:03;50979.00;;;-145.42;100.00
49367;BME280;35245;52.026;8.540;2023-02-11T03:11:32;51000.78;;;-145.42;100.00
49367;BME280;35245;52.026;8.540;2023-02-11T03:14:04;50979.00;;;-145.42;100.00
49367;BME280;35245;52.026;8.540;2023-02-11T03:16:33;50975.03;;;-145.42;100.00
49367;BME280;35245;52.026;8.540;2023-02-11T03:19:10;50979.00;;;-145.42;100.00
49367;BME280;35245;52.026;8.540;2023-02-11T03:21:40;50990.88;;;-145.42;100.00
49367;BME280;35245;52.026;8.540;2023-02-11T03:24:12;51012.69;;;-145.42;100.00
49367;BME280;35245;52.026;8.540;2023-02-11T03:26:43;50988.91;;;-145.42;100.00
49367;BME280;35245;52.026;8.540;2023-02-11T03:29:17;50992.88;;;-145.42;100.00
49367;BME280;35245;52.026;8.540;2023-02-11T03:31:57;50980.97;;;-145.42;100.00
49367;BME280;35245;52.026;8.540;2023-02-11T03:34:32;50971.06;;;-145.42;100.00
49367;BME280;35245;52.026;8.540;2023-02-11T03:37:06;50975.03;;;-145.42;100.00
49367;BME280;35245;52.026;8.540;2023-02-11T03:39:38;51018.63;;;-145.42;100.00
49367;BME280;35245;52.026;8.540;2023-02-11T03:42:08;50959.16;;;-145.42;100.00
49367;BME280;35245;52.026;8.540;2023-02-11T03:44:40;51006.75;;;-145.42;100.00
49367;BME280;35245;52.026;8.540;2023-02-11T03:47:11;50986.91;;;-145.42;100.00
49367;BME280;35245;52.026;8.540;2023-02-11T03:49:44;50996.84;;;-145.42;100.00
49367;BME280;35245;52.026;8.540;2023-02-11T03:52:15;50977.00;;;-145.42;100.00
49367;BME280;35245;52.026;8.540;2023-02-11T03:54:45;51006.75;;;-145.42;100.00
49367;BME280;35245;52.026;8.540;2023-02-11T03:57:15;50994.84;;;-145.42;100.00
49367;BME280;35245;52.026;8.540;2023-02-11T03:59:50;50988.91;;;-145.42;100.00
49367;BME280;35245;52.026;8.540;2023-02-11T04:02:18;50994.84;;;-145.42;100.00
49367;BME280;35245;52.026;8.540;2023-02-11T04:04:47;51000.78;;;-145.42;100.00
49367;BME280;35245;52.026;8.540;2023-02-11T04:07:15;50984.94;;;-145.42;100.00
49367;BME280;35245;52.026;8.540;2023-02-11T04:09:42;50992.88;;;-145.42;100.00
49367;BME280;35245;52.026;8.540;2023-02-11T04:12:09;50988.91;;;-145.42;100.00
49367;BME280;35245;52.026;8.540;2023-02-11T04:14:36;51002.78;;;-145.42;100.00
49367;BME280;35245;52.026;8.540;2023-02-11T04:17:04;50986.91;;;-145.42;100.00
49367;BME280;35245;52.026;8.540;2023-02-11T04:19:31;51008.72;;;-145.42;100.00
49367;BME280;35245;52.026;8.540;2023-02-11T04:22:00;50992.88;;;-145.42;100.00
49367;BME280;35245;52.026;8.540;2023-02-11T04:24:27;50996.84;;;-145.42;100.00
49367;BME280;35245;52.026;8.540;2023-02-11T04:26:55;50990.88;;;-145.42;100.00
49367;BME280;35245;52.026;8.540;2023-02-11T04:29:22;50975.03;;;-145.42;100.00
49367;BME280;35245;52.026;8.540;2023-02-11T04:31:49;51010.72;;;-145.42;100.00
49367;BME280;35245;52.026;8.540;2023-02-11T04:34:16;51002.78;;;-145.42;100.00
49367;BME280;35245;52.026;8.540;2023-02-11T04:36:43;50994.84;;;-145.42;100.00
49367;BME280;35245;52.026;8.540;2023-02-11T04:39:12;50982.97;;;-145.42;100.00
49367;BME280;35245;52.026;8.540;2023-02-11T04:41:39;50992.88;;;-145.42;100.00
49367;BME280;35245;52.026;8.540;2023-02-11T04:44:07;50977.00;;;-145.42;100.00
49367;BME280;35245;52.026;8.540;2023-02-11T04:46:34;50984.94;;;-145.42;100.00
49367;BME280;35245;52.026;8.540;2023-02-11T04:49:01;50990.88;;;-145.42;100.00
49367;BME280;35245;52.026;8.540;2023-02-11T04:51:28;50975.03;;;-145.42;100.00
49367;BME280;35245;52.026;8.540;2023-02-11T04:53:56;51014.66;;;-145.42;100.00
49367;BME280;35245;52.026;8.540;2023-02-11T04:56:24;51006.75;;;-145.42;100.00
49367;BME280;35245;52.026;8.540;2023-02-11T04:58:51;51000.78;;;-145.42;100.00
49367;BME280;35245;52.026;8.540;2023-02-11T05:01:19;51008.72;;;-145.42;100.00
49367;BME280;35245;52.026;8.540;2023-02-11T05:03:46;50990.88;;;-145.42;100.00
49367;BME280;35245;52.026;8.540;2023-02-11T05:06:13;51010.72;;;-145.42;100.00
49367;BME280;35245;52.026;8.540;2023-02-11T05:08:40;50990.88;;;-145.42;100.00
49367;BME280;35245;52.026;8.540;2023-02-11T05:11:09;50988.91;;;-145.42;100.00
49367;BME280;35245;52.026;8.540;2023-02-11T05:13:41;51000.78;;;-145.42;100.00
49367;BME280;35245;52.026;8.540;2023-02-11T05:16:08;50979.00;;;-145.42;100.00
49367;BME280;35245;52.026;8.540;2023-02-11T05:18:37;50998.81;;;-145.42;100.00
49367;BME280;35245;52.026;8.540;2023-02-11T05:21:06;50973.03;;;-145.42;100.00
49367;BME280;35245;52.026;8.540;2023-02-11T05:23:34;50990.88;;;-145.42;100.00
49367;BME280;35245;52.026;8.540;2023-02-11T05:26:02;50969.06;;;-145.42;100.00
49367;BME280;35245;52.026;8.540;2023-02-11T05:28:30;50975.03;;;-145.42;100.00
49367;BME280;35245;52.026;8.540;2023-02-11T05:30:58;50969.06;;;-145.42;100.00
49367;BME280;35245;52.026;8.540;2023-02-11T05:33:26;50990.88;;;-145.42;100.00
49367;BME280;35245;52.026;8.540;2023-02-11T05:35:58;50977.00;;;-145.42;100.00
49367;BME280;35245;52.026;8.540;2023-02-11T05:38:26;51002.78;;;-145.42;100.00
49367;BME280;35245;52.026;8.540;2023-02-11T05:40:54;51000.78;;;-145.42;100.00
49367;BME280;35245;52.026;8.540;2023-02-11T05:43:21;50975.03;;;-145.42;100.00
49367;BME280;35245;52.026;8.540;2023-02-11T05:45:48;50980.97;;;-145.42;100.00
49367;BME280;35245;52.026;8.540;2023-02-11T05:48:17;50982.97;;;-145.42;100.00
49367;BME280;35245;52.026;8.540;2023-02-11T05:50:44;50971.06;;;-145.42;100.00
49367;BME280;35245;52.026;8.540;2023-02-11T05:53:12;50959.16;;;-145.42;100.00
49367;BME280;35245;52.026;8.540;2023-02-11T05:55:39;50992.88;;;-145.42;100.00
49367;BME280;35245;52.026;8.540;2023-02-11T05:58:06;51006.75;;;-145.42;100.00
49367;BME280;35245;52.026;8.540;2023-02-11T06:00:34;50990.88;;;-145.42;100.00
49367;BME280;35245;52.026;8.540;2023-02-11T06:03:02;50998.81;;;-145.42;100.00
49367;BME280;35245;52.026;8.540;2023-02-11T06:05:31;50998.81;;;-145.42;100.00
49367;BME280;35245;52.026;8.540;2023-02-11T06:07:58;50965.13;;;-145.42;100.00
49367;BME280;35245;52.026;8.540;2023-02-11T06:10:26;51002.78;;;-145.42;100.00
49367;BME280;35245;52.026;8.540;2023-02-11T06:12:53;51002.78;;;-145.42;100.00
49367;BME280;35245;52.026;8.540;2023-02-11T06:15:20;50996.84;;;-145.42;100.00
49367;BME280;35245;52.026;8.540;2023-02-11T06:17:47;50994.84;;;-145.42;100.00
49367;BME280;35245;52.026;8.540;2023-02-11T06:20:15;50992.88;;;-145.42;100.00
49367;BME280;35245;52.026;8.540;2023-02-11T06:22:44;51000.78;;;-145.42;100.00
49367;BME280;35245;52.026;8.540;2023-02-11T06:25:11;50984.94;;;-145.42;100.00
49367;BME280;35245;52.026;8.540;2023-02-11T06:27:38;50994.84;;;-145.42;100.00
49367;BME280;35245;52.026;8.540;2023-02-11T06:30:07;50998.81;;;-145.42;100.00
49367;BME280;35245;52.026;8.540;2023-02-11T06:32:35;51000.78;;;-145.42;100.00
49367;BME280;35245;52.026;8.540;2023-02-11T06:35:03;50975.03;;;-145.42;100.00
49367;BME280;35245;52.026;8.540;2023-02-11T06:37:30;50969.06;;;-145.42;100.00
49367;BME280;35245;52.026;8.540;2023-02-11T06:39:58;51004.75;;;-145.42;100.00
49367;BME280;35245;52.026;8.540;2023-02-11T06:42:26;50994.84;;;-145.42;100.00
49367;BME280;35245;52.026;8.540;2023-02-11T06:44:53;50986.91;;;-145.42;100.00
49367;BME280;35245;52.026;8.540;2023-02-11T06:47:20;50984.94;;;-145.42;100.00
49367;BME280;35245;52.026;8.540;2023-02-11T06:49:47;50996.84;;;-145.42;100.00
49367;BME280;35245;52.026;8.540;2023-02-11T06:52:14;50984.94;;;-145.42;100.00
49367;BME280;35245;52.026;8.540;2023-02-11T06:54:42;50996.84;;;-145.42;100.00
49367;BME280;35245;52.026;8.540;2023-02-11T06:57:10;50986.91;;;-145.42;100.00
49367;BME280;35245;52.026;8.540;2023-02-11T06:59:38;50986.91;;;-145.42;100.00
49367;BME280;35245;52.026;8.540;2023-02-11T07:02:05;51024.59;;;-145.42;100.00
49367;BME280;35245;52.026;8.540;2023-02-11T07:04:32;51000.78;;;-145.42;100.00
49367;BME280;35245;52.026;8.540;2023-02-11T07:06:59;50980.97;;;-145.42;100.00
49367;BME280;35245;52.026;8.540;2023-02-11T07:09:26;50988.91;;;-145.42;100.00
49367;BME280;35245;52.026;8.540;2023-02-11T07:11:54;50982.97;;;-145.42;100.00
49367;BME280;35245;52.026;8.540;2023-02-11T07:14:22;51010.72;;;-145.42;100.00
49367;BME280;35245;52.026;8.540;2023-02-11T07:16:50;51012.69;;;-145.42;100.00
49367;BME280;35245;52.026;8.540;2023-02-11T07:19:17;51002.78;;;-145.42;100.00
49367;BME280;35245;52.026;8.540;2023-02-11T07:21:44;50984.94;;;-145.42;100.00
49367;BME280;35245;52.026;8.540;2023-02-11T07:24:13;50994.84;;;-145.42;100.00
49367;BME280;35245;52.026;8.540;2023-02-11T07:26:41;50977.00;;;-145.42;100.00
49367;BME280;35245;52.026;8.540;2023-02-11T07:29:08;50988.91;;;-145.42;100.00
49367;BME280;35245;52.026;8.540;2023-02-11T07:31:36;51008.72;;;-145.42;100.00
49367;BME280;35245;52.026;8.540;2023-02-11T07:34:03;50998.81;;;-145.42;100.00
49367;BME280;35245;52.026;8.540;2023-02-11T07:36:31;50977.00;;;-145.42;100.00
49367;BME280;35245;52.026;8.540;2023-02-11T07:38:58;50975.03;;;-145.42;100.00
49367;BME280;35245;52.026;8.540;2023-02-11T07:41:26;50977.00;;;-145.42;100.00
49367;BME280;35245;52.026;8.540;2023-02-11T07:43:54;50979.00;;;-145.42;100.00
49367;BME280;35245;52.026;8.540;2023-02-11T07:46:23;51000.78;;;-145.42;100.00
49367;BME280;35245;52.026;8.540;2023-02-11T07:48:53;50994.84;;;-145.42;100.00
49367;BME280;35245;52.026;8.540;2023-02-11T07:51:22;50971.06;;;-145.42;100.00
49367;BME280;35245;52.026;8.540;2023-02-11T07:53:51;51004.75;;;-145.42;100.00
49367;BME280;35245;52.026;8.540;2023-02-11T07:56:20;51000.78;;;-145.42;100.00
49367;BME280;35245;52.026;8.540;2023-02-11T07:58:47;51000.78;;;-145.42;100.00
49367;BME280;35245;52.026;8.540;2023-02-11T08:01:17;50998.81;;;-145.42;100.00
49367;BME280;35245;52.026;8.540;2023-02-11T08:03:45;50986.91;;;-145.42;100.00
49367;BME280;35245;52.026;8.540;2023-02-11T08:06:15;50992.88;;;-145.42;100.00
49367;BME280;35245;52.026;8.540;2023-02-11T08:08:43;51008.72;;;-145.42;100.00
49367;BME280;35245;52.026;8.540;2023-02-11T08:11:13;50992.88;;;-145.42;100.00
49367;BME280;35245;52.026;8.540;2023-02-11T08:13:41;50967.09;;;-145.42;100.00
49367;BME280;35245;52.026;8.540;2023-02-11T08:16:09;50996.84;;;-145.42;100.00
49367;BME280;35245;52.026;8.540;2023-02-11T08:18:42;51006.75;;;-145.42;100.00
49367;BME280;35245;52.026;8.540;2023-02-11T08:21:10;50984.94;;;-145.42;100.00
49367;BME280;35245;52.026;8.540;2023-02-11T08:23:40;51000.78;;;-145.42;100.00
49367;BME280;35245;52.026;8.540;2023-02-11T08:26:11;50982.97;;;-145.42;100.00
49367;BME280;35245;52.026;8.540;2023-02-11T08:28:40;50984.94;;;-145.42;100.00
49367;BME280;35245;52.026;8.540;2023-02-11T08:31:12;50988.91;;;-145.42;100.00
49367;BME280;35245;52.026;8.540;2023-02-11T08:33:40;50998.81;;;-145.42;100.00
49367;BME280;35245;52.026;8.540;2023-02-11T08:36:09;50990.88;;;-145.42;100.00
49367;BME280;35245;52.026;8.540;2023-02-11T08:38:38;50986.91;;;-145.42;100.00
49367;BME280;35245;52.026;8.540;2023-02-11T08:41:05;50975.03;;;-145.42;100.00
49367;BME280;35245;52.026;8.540;2023-02-11T08:43:33;50980.97;;;-145.42;100.00
49367;BME280;35245;52.026;8.540;2023-02-11T08:46:01;50998.81;;;-145.42;100.00
49367;BME280;35245;52.026;8.540;2023-02-11T08:48:28;50982.97;;;-145.42;100.00
49367;BME280;35245;52.026;8.540;2023-02-11T08:50:56;50979.00;;;-145.42;100.00
49367;BME280;35245;52.026;8.540;2023-02-11T08:53:24;51004.75;;;-145.42;100.00
49367;BME280;35245;52.026;8.540;2023-02-11T08:55:55;51018.63;;;-145.42;100.00
49367;BME280;35245;52.026;8.540;2023-02-11T08:58:22;50998.81;;;-145.42;100.00
49367;BME280;35245;52.026;8.540;2023-02-11T09:00:49;51006.75;;;-145.42;100.00
49367;BME280;35245;52.026;8.540;2023-02-11T09:03:17;51010.72;;;-145.42;100.00
49367;BME280;35245;52.026;8.540;2023-02-11T09:05:46;50988.91;;;-145.42;100.00
49367;BME280;35245;52.026;8.540;2023-02-11T09:08:14;50979.00;;;-145.42;100.00
49367;BME280;35245;52.026;8.540;2023-02-11T09:10:41;51006.75;;;-145.42;100.00
49367;BME280;35245;52.026;8.540;2023-02-11T09:13:10;50994.84;;;-145.42;100.00
49367;BME280;35245;52.026;8.540;2023-02-11T09:15:38;51000.78;;;-145.42;100.00
49367;BME280;35245;52.026;8.540;2023-02-11T09:18:05;51018.63;;;-145.42;100.00
49367;BME280;35245;52.026;8.540;2023-02-11T09:20:32;50977.00;;;-145.42;100.00
49367;BME280;35245;52.026;8.540;2023-02-11T09:22:59;51024.59;;;-145.42;100.00
49367;BME280;35245;52.026;8.540;2023-02-11T09:25:27;51008.72;;;-145.42;100.00
49367;BME280;35245;52.026;8.540;2023-02-11T09:27:54;51016.66;;;-145.42;100.00
49367;BME280;35245;52.026;8.540;2023-02-11T09:30:23;51010.72;;;-145.42;100.00
49367;BME280;35245;52.026;8.540;2023-02-11T09:32:50;50998.81;;;-145.42;100.00
49367;BME280;35245;52.026;8.540;2023-02-11T09:35:17;50971.06;;;-145.42;100.00
49367;BME280;35245;52.026;8.540;2023-02-11T09:37:45;51020.63;;;-145.42;100.00
49367;BME280;35245;52.026;8.540;2023-02-11T09:40:12;51002.78;;;-145.42;100.00
49367;BME280;35245;52.026;8.540;2023-02-11T09:42:45;51000.78;;;-145.42;100.00
49367;BME280;35245;52.026;8.540;2023-02-11T09:45:19;51002.78;;;-145.42;100.00
49367;BME280;35245;52.026;8.540;2023-02-11T09:47:54;51030.53;;;-145.42;100.00
49367;BME280;35245;52.026;8.540;2023-02-11T09:50:27;50984.94;;;-145.42;100.00
49367;BME280;35245;52.026;8.540;2023-02-11T09:52:59;51006.75;;;-145.42;100.00
49367;BME280;35245;52.026;8.540;2023-02-11T09:55:30;50998.81;;;-145.42;100.00
49367;BME280;35245;52.026;8.540;2023-02-11T09:58:06;50986.91;;;-145.42;100.00
49367;BME280;35245;52.026;8.540;2023-02-11T10:00:42;51006.75;;;-145.42;100.00
49367;BME280;35245;52.026;8.540;2023-02-11T10:03:49;50977.00;;;-145.42;100.00
49367;BME280;35245;52.026;8.540;2023-02-11T10:06:38;50996.84;;;-145.42;100.00
49367;BME280;35245;52.026;8.540;2023-02-11T10:09:35;51002.78;;;-145.42;100.00
49367;BME280;35245;52.026;8.540;2023-02-11T10:12:32;51012.69;;;-145.42;100.00
49367;BME280;35245;52.026;8.540;2023-02-11T10:15:23;51010.72;;;-145.42;100.00
49367;BME280;35245;52.026;8.540;2023-02-11T10:18:09;51036.47;;;-145.42;100.00
49367;BME280;35245;52.026;8.540;2023-02-11T10:20:52;51000.78;;;-145.42;100.00
49367;BME280;35245;52.026;8.540;2023-02-11T10:23:26;51010.72;;;-145.42;100.00
49367;BME280;35245;52.026;8.540;2023-02-11T10:25:55;51000.78;;;-145.42;100.00
49367;BME280;35245;52.026;8.540;2023-02-11T10:28:30;51012.69;;;-145.42;100.00
49367;BME280;35245;52.026;8.540;2023-02-11T10:31:01;51008.72;;;-145.42;100.00
49367;BME280;35245;52.026;8.540;2023-02-11T10:33:33;50990.88;;;-145.42;100.00
49367;BME280;35245;52.026;8.540;2023-02-11T10:36:05;51018.63;;;-145.42;100.00
49367;BME280;35245;52.026;8.540;2023-02-11T10:38:33;51002.78;;;-145.42;100.00
49367;BME280;35245;52.026;8.540;2023-02-11T10:41:02;51004.75;;;-145.42;100.00
49367;BME280;35245;52.026;8.540;2023-02-11T10:43:30;51000.78;;;-145.42;100.00
49367;BME280;35245;52.026;8.540;2023-02-11T10:46:02;51008.72;;;-145.42;100.00
49367;BME280;35245;52.026;8.540;2023-02-11T10:48:43;51014.66;;;-145.42;100.00
49367;BME280;35245;52.026;8.540;2023-02-11T10:51:23;50996.84;;;-145.42;100.00
49367;BME280;35245;52.026;8.540;2023-02-11T10:54:16;51012.69;;;-145.42;100.00
49367;BME280;35245;52.026;8.540;2023-02-11T10:56:48;51006.75;;;-145.42;100.00
49367;BME280;35245;52.026;8.540;2023-02-11T10:59:23;51006.75;;;-145.42;100.00
49367;BME280;35245;52.026;8.540;2023-02-11T11:01:56;51010.72;;;-145.42;100.00
49367;BME280;35245;52.026;8.540;2023-02-11T11:04:38;50990.88;;;-145.42;100.00
49367;BME280;35245;52.026;8.540;2023-02-11T11:07:20;51004.75;;;-145.42;100.00
49367;BME280;35245;52.026;8.540;2023-02-11T11:09:52;51014.66;;;-145.42;100.00
49367;BME280;35245;52.026;8.540;2023-02-11T11:12:33;50988.91;;;-145.42;100.00
49367;BME280;35245;52.026;8.540;2023-02-11T11:15:13;51028.53;;;-145.42;100.00
49367;BME280;35245;52.026;8.540;2023-02-11T11:17:43;51006.75;;;-145.42;100.00
49367;BME280;35245;52.026;8.540;2023-02-11T11:20:21;51008.72;;;-145.42;100.00
49367;BME280;35245;52.026;8.540;2023-02-11T11:22:53;51014.66;;;-145.42;100.00
49367;BME280;35245;52.026;8.540;2023-02-11T11:25:36;51002.78;;;-145.42;100.00
49367;BME280;35245;52.026;8.540;2023-02-11T11:28:15;51012.69;;;-145.42;100.00
49367;BME280;35245;52.026;8.540;2023-02-11T11:30:44;51012.69;;;-145.42;100.00
49367;BME280;35245;52.026;8.540;2023-02-11T11:33:20;51012.69;;;-145.42;100.00
49367;BME280;35245;52.026;8.540;2023-02-11T11:36:01;51028.53;;;-145.42;100.00
49367;BME280;35245;52.026;8.540;2023-02-11T11:38:31;51012.69;;;-145.42;100.00
49367;BME280;35245;52.026;8.540;2023-02-11T11:41:21;50994.84;;;-145.42;100.00
49367;BME280;35245;52.026;8.540;2023-02-11T11:44:23;50998.81;;;-145.42;100.00
49367;BME280;35245;52.026;8.540;2023-02-11T11:47:03;51002.78;;;-145.42;100.00
49367;BME280;35245;52.026;8.540;2023-02-11T11:49:37;51012.69;;;-145.42;100.00
49367;BME280;35245;52.026;8.540;2023-02-11T11:52:18;51034.50;;;-145.42;100.00
49367;BME280;35245;52.026;8.540;2023-02-11T11:54:54;51016.66;;;-145.42;100.00
49367;BME280;35245;52.026;8.540;2023-02-11T11:57:26;51038.47;;;-145.42;100.00
49367;BME280;35245;52.026;8.540;2023-02-11T11:59:56;51014.66;;;-145.42;100.00
49367;BME280;35245;52.026;8.540;2023-02-11T12:02:53;51026.56;;;-145.42;100.00
49367;BME280;35245;52.026;8.540;2023-02-11T12:05:36;51004.75;;;-145.42;100.00
49367;BME280;35245;52.026;8.540;2023-02-11T12:08:15;51006.75;;;-145.42;100.00
49367;BME280;35245;52.026;8.540;2023-02-11T12:11:02;51014.66;;;-145.42;100.00
49367;BME280;35245;52.026;8.540;2023-02-11T12:13:46;51026.56;;;-145.42;100.00
49367;BME280;35245;52.026;8.540;2023-02-11T12:16:27;51036.47;;;-145.42;100.00
49367;BME280;35245;52.026;8.540;2023-02-11T12:19:37;51012.69;;;-145.42;100.00
49367;BME280;35245;52.026;8.540;2023-02-11T12:22:11;51006.75;;;-145.42;100.00
49367;BME280;35245;52.026;8.540;2023-02-11T12:24:57;50996.84;;;-145.42;100.00
49367;BME280;35245;52.026;8.540;2023-02-11T12:27:47;51018.63;;;-145.42;100.00
49367;BME280;35245;52.026;8.540;2023-02-11T12:30:27;51028.53;;;-145.42;100.00
49367;BME280;35245;52.026;8.540;2023-02-11T12:33:09;51034.50;;;-145.42;100.00
49367;BME280;35245;52.026;8.540;2023-02-11T12:35:52;51008.72;;;-145.42;100.00
49367;BME280;35245;52.026;8.540;2023-02-11T12:38:46;51022.59;;;-145.42;100.00
49367;BME280;35245;52.026;8.540;2023-02-11T12:41:33;51036.47;;;-145.42;100.00
49367;BME280;35245;52.026;8.540;2023-02-11T12:44:30;51046.38;;;-145.42;100.00
49367;BME280;35245;52.026;8.540;2023-02-11T12:47:10;51022.59;;;-145.42;100.00
49367;BME280;35245;52.026;8.540;2023-02-11T12:50:06;51022.59;;;-145.42;100.00
49367;BME280;35245;52.026;8.540;2023-02-11T12:53:04;51034.50;;;-145.42;100.00
49367;BME280;35245;52.026;8.540;2023-02-11T12:55:38;51020.63;;;-145.42;100.00
49367;BME280;35245;52.026;8.540;2023-02-11T12:58:15;51038.47;;;-145.42;100.00
49367;BME280;35245;52.026;8.540;2023-02-11T13:00:49;51042.41;;;-145.42;100.00
49367;BME280;35245;52.026;8.540;2023-02-11T13:03:23;51024.59;;;-145.42;100.00